Terminal Aerodrome Forecast
Issued by NWS

Home | Current Version | Previous Version | Text Only | Print | Product List | Glossary On
Versions: 1 2 3 4 5 6 7 8 9 10 11 12 13 14 15 16
656
FTUS45 KABQ 040540
TAFROW
TAF
KROW 040540Z 0406/0506 VRB05KT P6SM BKN050
     FM041100 35008KT 3SM BR BKN012
     FM041900 01008KT P6SM FEW020 BKN035=

USA.gov is the U.S. government's official web portal to all federal, state and local government web resources and services.